Time;durP1;ratioP1;P1;durP2;ratioP2;P2;SDS_P1;SDS_P2;PMS_P1;PMS_P2;Temp;Humidity;BMP_temperature;BMP_pressure;BME280_temperature;BME280_humidity;BME280_pressure;Samples;Min_cycle;Max_cycle;Signal;HPM_P1;HPM_P2
2022/05/11 00:01:35;;;;;;;12.05;9.52;;;;;;;;;;4971168;28;20037;-68
2022/05/11 00:04:00;;;;;;;12.63;9.68;;;;;;;;;;4973145;28;20038;-68
2022/05/11 00:06:27;;;;;;;12.32;9.45;;;;;;;;;;4977832;28;20054;-69
2022/05/11 00:08:52;;;;;;;12.88;9.32;;;;;;;;;;4976688;28;20114;-72
2022/05/11 00:11:18;;;;;;;10.43;8.52;;;;;;;;;;4968179;28;20034;-69
2022/05/11 00:13:44;;;;;;;10.68;7.38;;;;;;;;;;4974821;28;20026;-67
2022/05/11 00:16:10;;;;;;;8.43;6.50;;;;;;;;;;4969415;28;20030;-68
2022/05/11 00:18:35;;;;;;;7.65;5.65;;;;;;;;;;4976250;28;20026;-67
2022/05/11 00:21:01;;;;;;;9.23;5.85;;;;;;;;;;4977372;28;20030;-68
2022/05/11 00:23:26;;;;;;;6.95;5.38;;;;;;;;;;4978373;28;20026;-72
2022/05/11 00:25:51;;;;;;;7.70;5.30;;;;;;;;;;4972998;28;20436;-69
2022/05/11 00:28:16;;;;;;;9.15;5.82;;;;;;;;;;4971253;28;20045;-67
2022/05/11 00:30:42;;;;;;;12.45;8.05;;;;;;;;;;4978050;28;20026;-68
2022/05/11 00:33:07;;;;;;;14.63;8.98;;;;;;;;;;4976589;28;20058;-68
2022/05/11 00:35:33;;;;;;;16.50;7.70;;;;;;;;;;4977966;28;20109;-69
2022/05/11 00:38:00;;;;;;;10.90;7.60;;;;;;;;;;4976795;28;20521;-68
2022/05/11 00:40:26;;;;;;;12.18;8.23;;;;;;;;;;4978551;28;20391;-68
2022/05/11 00:42:51;;;;;;;9.63;7.00;;;;;;;;;;4976437;28;20026;-68
2022/05/11 00:45:17;;;;;;;8.52;6.60;;;;;;;;;;4976730;28;20070;-66
2022/05/11 00:47:43;;;;;;;10.40;6.25;;;;;;;;;;4976323;28;20622;-66
2022/05/11 00:50:28;;;;;;;8.98;5.93;;;;;;;;;;4977157;28;20449;-68
2022/05/11 00:52:55;;;;;;;9.68;6.50;;;;;;;;;;4976310;28;20030;-67
2022/05/11 00:55:32;;;;;;;9.15;6.38;;;;;;;;;;4978079;28;20130;-71
2022/05/11 00:58:00;;;;;;;8.43;6.30;;;;;;;;;;4970351;28;20034;-70
2022/05/11 01:00:26;;;;;;;8.40;6.20;;;;;;;;;;4974389;28;20054;-68
2022/05/11 01:02:54;;;;;;;7.18;6.30;;;;;;;;;;4976031;28;20049;-69
2022/05/11 01:05:19;;;;;;;10.13;6.75;;;;;;;;;;4977960;28;20152;-67
2022/05/11 01:07:44;;;;;;;8.30;5.97;;;;;;;;;;4976150;28;20512;-66
2022/05/11 01:10:10;;;;;;;6.25;5.20;;;;;;;;;;4976007;28;20033;-66
2022/05/11 01:12:39;;;;;;;8.38;6.20;;;;;;;;;;4976091;28;20050;-67
2022/05/11 01:15:05;;;;;;;7.43;6.60;;;;;;;;;;4976163;28;20066;-66
2022/05/11 01:17:31;;;;;;;10.63;6.28;;;;;;;;;;4975716;28;20034;-67
2022/05/11 01:19:57;;;;;;;8.52;6.20;;;;;;;;;;4976088;28;20429;-68
2022/05/11 01:22:25;;;;;;;9.25;5.88;;;;;;;;;;4976895;28;20682;-70
2022/05/11 01:24:50;;;;;;;7.43;5.80;;;;;;;;;;4973843;28;20041;-70
2022/05/11 01:27:21;;;;;;;6.72;6.03;;;;;;;;;;4975059;28;21267;-66
2022/05/11 01:29:47;;;;;;;8.85;5.18;;;;;;;;;;4975789;28;20049;-67
2022/05/11 01:32:12;;;;;;;7.57;5.85;;;;;;;;;;4976734;28;20022;-69
2022/05/11 01:34:37;;;;;;;9.65;6.50;;;;;;;;;;4975004;28;20026;-67
2022/05/11 01:37:04;;;;;;;9.70;6.47;;;;;;;;;;4965933;28;20022;-66
2022/05/11 01:39:29;;;;;;;7.28;5.68;;;;;;;;;;4974758;28;20026;-70
2022/05/11 01:41:55;;;;;;;8.82;6.68;;;;;;;;;;4974495;28;20030;-66
2022/05/11 01:44:21;;;;;;;9.35;7.38;;;;;;;;;;4974305;28;20034;-68
2022/05/11 01:46:48;;;;;;;10.75;6.22;;;;;;;;;;4975861;28;20026;-67
2022/05/11 01:49:14;;;;;;;9.38;6.70;;;;;;;;;;4974432;28;20030;-69
2022/05/11 01:51:39;;;;;;;8.23;5.80;;;;;;;;;;4975589;28;20087;-72
2022/05/11 01:54:04;;;;;;;6.13;5.35;;;;;;;;;;4970753;28;20065;-68
2022/05/11 01:56:31;;;;;;;9.27;6.68;;;;;;;;;;4969439;28;20034;-68
2022/05/11 01:58:56;;;;;;;10.23;5.85;;;;;;;;;;4978888;28;20113;-68
2022/05/11 02:01:23;;;;;;;8.05;5.47;;;;;;;;;;4978142;28;20140;-67
2022/05/11 02:03:50;;;;;;;9.13;5.60;;;;;;;;;;4974191;28;20466;-68
2022/05/11 02:08:59;;;;;;;7.53;5.65;;;;;;;;;;4975215;28;20037;-69
2022/05/11 02:11:26;;;;;;;7.30;5.30;;;;;;;;;;4975367;28;20027;-68
2022/05/11 02:13:51;;;;;;;5.85;5.35;;;;;;;;;;4965974;28;20433;-71
2022/05/11 02:16:16;;;;;;;7.93;5.90;;;;;;;;;;4963185;28;20033;-68
2022/05/11 02:18:42;;;;;;;8.13;5.07;;;;;;;;;;4965560;28;20027;-68
2022/05/11 02:21:07;;;;;;;6.88;5.72;;;;;;;;;;4966027;28;20046;-71
2022/05/11 02:23:33;;;;;;;7.32;5.20;;;;;;;;;;4975679;28;20042;-68
2022/05/11 02:25:59;;;;;;;6.95;5.45;;;;;;;;;;4975828;28;20031;-67
2022/05/11 02:28:24;;;;;;;8.65;5.00;;;;;;;;;;4976585;28;20030;-68
2022/05/11 02:30:51;;;;;;;5.75;4.93;;;;;;;;;;4975891;28;20042;-68
2022/05/11 02:33:16;;;;;;;7.07;5.10;;;;;;;;;;4976261;28;20159;-68
2022/05/11 02:35:42;;;;;;;5.28;4.78;;;;;;;;;;4973927;28;20344;-67
2022/05/11 02:38:14;;;;;;;5.95;4.90;;;;;;;;;;4975406;28;20588;-69
2022/05/11 02:40:40;;;;;;;7.22;5.28;;;;;;;;;;4975168;28;20061;-66
2022/05/11 02:43:06;;;;;;;6.47;5.03;;;;;;;;;;4966556;28;20429;-67
2022/05/11 02:45:32;;;;;;;5.88;5.22;;;;;;;;;;4973407;28;20050;-70
2022/05/11 02:47:58;;;;;;;7.70;4.75;;;;;;;;;;4974390;28;20128;-66
2022/05/11 02:50:26;;;;;;;8.55;5.25;;;;;;;;;;4975415;28;20108;-67
2022/05/11 02:52:51;;;;;;;5.97;5.03;;;;;;;;;;4966352;28;20034;-71
2022/05/11 02:55:17;;;;;;;6.20;5.25;;;;;;;;;;4978055;28;20027;-67
2022/05/11 02:57:42;;;;;;;6.18;4.93;;;;;;;;;;4979339;28;20091;-71
2022/05/11 03:00:09;;;;;;;7.07;5.03;;;;;;;;;;4979441;28;20097;-68
2022/05/11 03:02:35;;;;;;;8.07;5.07;;;;;;;;;;4980065;28;20057;-67
2022/05/11 03:05:00;;;;;;;6.07;5.05;;;;;;;;;;4978580;28;20078;-68
2022/05/11 03:07:26;;;;;;;6.30;4.75;;;;;;;;;;4977554;28;20025;-70
2022/05/11 03:09:53;;;;;;;9.00;5.88;;;;;;;;;;4967148;28;20026;-72
2022/05/11 03:12:18;;;;;;;10.07;5.25;;;;;;;;;;4968980;28;20022;-66
2022/05/11 03:14:44;;;;;;;6.82;5.53;;;;;;;;;;4976657;28;20113;-67
2022/05/11 03:17:09;;;;;;;8.93;5.68;;;;;;;;;;4978743;28;20057;-66
2022/05/11 03:19:35;;;;;;;10.65;6.28;;;;;;;;;;4977328;28;20030;-67
2022/05/11 03:22:00;;;;;;;10.60;6.20;;;;;;;;;;4978423;28;20034;-70
2022/05/11 03:24:26;;;;;;;10.20;6.70;;;;;;;;;;4977376;28;20045;-67
2022/05/11 03:26:51;;;;;;;20.83;11.75;;;;;;;;;;4977949;28;20023;-69
2022/05/11 03:29:18;;;;;;;32.92;18.60;;;;;;;;;;4978329;28;20468;-68
2022/05/11 03:34:37;;;;;;;14.57;8.57;;;;;;;;;;4976844;28;20456;-68
2022/05/11 03:37:04;;;;;;;7.53;5.95;;;;;;;;;;4976359;28;20087;-66
2022/05/11 03:39:29;;;;;;;8.27;6.30;;;;;;;;;;4976402;28;20742;-67
2022/05/11 03:41:54;;;;;;;9.18;7.30;;;;;;;;;;4978327;28;20018;-65
2022/05/11 03:44:19;;;;;;;7.95;6.22;;;;;;;;;;4976969;28;20032;-66
2022/05/11 03:46:45;;;;;;;8.32;7.03;;;;;;;;;;4970838;28;20101;-71
2022/05/11 03:49:10;;;;;;;8.05;6.45;;;;;;;;;;4970334;28;20505;-68
2022/05/11 03:51:36;;;;;;;9.82;6.60;;;;;;;;;;4972739;28;20750;-67
2022/05/11 03:54:01;;;;;;;9.40;6.15;;;;;;;;;;4978471;28;20026;-70
2022/05/11 03:56:26;;;;;;;10.35;6.65;;;;;;;;;;4964244;28;20101;-67
2022/05/11 03:58:53;;;;;;;11.75;9.82;;;;;;;;;;4970443;28;20053;-68
2022/05/11 04:01:19;;;;;;;8.00;7.10;;;;;;;;;;4965537;28;20377;-68
2022/05/11 04:03:46;;;;;;;9.73;6.88;;;;;;;;;;4969148;28;20038;-69
2022/05/11 04:06:11;;;;;;;7.90;6.60;;;;;;;;;;4964300;28;20064;-71
2022/05/11 04:08:36;;;;;;;10.30;7.32;;;;;;;;;;4964586;28;20030;-68
2022/05/11 04:11:02;;;;;;;8.65;7.45;;;;;;;;;;4965464;28;20079;-70
2022/05/11 04:13:27;;;;;;;11.20;7.82;;;;;;;;;;4966505;28;20498;-69
2022/05/11 04:15:53;;;;;;;12.10;7.60;;;;;;;;;;4965232;28;20058;-69
2022/05/11 04:18:19;;;;;;;14.15;10.18;;;;;;;;;;4966849;28;20025;-68
2022/05/11 04:20:44;;;;;;;17.02;12.38;;;;;;;;;;4971775;28;20330;-68
2022/05/11 04:23:09;;;;;;;98.57;54.30;;;;;;;;;;4971314;28;20095;-66
2022/05/11 04:25:35;;;;;;;204.15;118.03;;;;;;;;;;4971613;28;20076;-71
2022/05/11 04:28:02;;;;;;;144.88;81.03;;;;;;;;;;4977407;28;20029;-69
2022/05/11 04:30:31;;;;;;;69.10;40.35;;;;;;;;;;4974029;28;20492;-69
2022/05/11 04:32:57;;;;;;;47.28;30.42;;;;;;;;;;4971372;28;20033;-70
2022/05/11 04:35:22;;;;;;;27.42;19.55;;;;;;;;;;4962452;28;20091;-67
2022/05/11 04:37:48;;;;;;;30.33;20.50;;;;;;;;;;4970468;28;20380;-67
2022/05/11 04:40:15;;;;;;;24.77;16.63;;;;;;;;;;4975098;28;20105;-69
2022/05/11 04:42:41;;;;;;;24.85;15.88;;;;;;;;;;4968005;28;20053;-68
2022/05/11 04:45:06;;;;;;;15.00;10.90;;;;;;;;;;4967383;28;20123;-71
2022/05/11 04:47:32;;;;;;;16.20;12.10;;;;;;;;;;4968422;28;20093;-67
2022/05/11 04:49:57;;;;;;;19.75;14.73;;;;;;;;;;4976945;28;20041;-68
2022/05/11 04:52:22;;;;;;;19.33;14.82;;;;;;;;;;4972337;28;20034;-68
2022/05/11 04:54:48;;;;;;;18.17;14.77;;;;;;;;;;4964825;28;20030;-67
2022/05/11 04:57:14;;;;;;;20.15;14.65;;;;;;;;;;4973151;28;20030;-68
2022/05/11 04:59:40;;;;;;;22.27;15.40;;;;;;;;;;4976372;28;20074;-70
2022/05/11 05:02:06;;;;;;;26.77;20.73;;;;;;;;;;4977353;28;20041;-70
2022/05/11 05:04:31;;;;;;;29.63;19.85;;;;;;;;;;4977431;28;20030;-72
2022/05/11 05:06:57;;;;;;;27.02;19.63;;;;;;;;;;4976246;28;20031;-66
2022/05/11 05:09:23;;;;;;;29.70;18.10;;;;;;;;;;4977623;28;20058;-68
2022/05/11 05:11:48;;;;;;;30.65;21.35;;;;;;;;;;4975913;28;21251;-68
2022/05/11 05:14:14;;;;;;;21.65;13.45;;;;;;;;;;4976595;28;20031;-69
2022/05/11 05:16:39;;;;;;;14.98;11.52;;;;;;;;;;4977577;28;20029;-68
2022/05/11 05:19:05;;;;;;;13.20;10.63;;;;;;;;;;4974906;28;20049;-70
2022/05/11 05:21:31;;;;;;;12.18;9.52;;;;;;;;;;4975171;28;20034;-67
2022/05/11 05:23:56;;;;;;;14.48;9.30;;;;;;;;;;4976152;28;20115;-69
2022/05/11 05:26:22;;;;;;;12.88;9.73;;;;;;;;;;4966830;28;20023;-69
2022/05/11 05:31:31;;;;;;;10.35;7.97;;;;;;;;;;4974010;28;20248;-70
2022/05/11 05:34:00;;;;;;;12.27;7.90;;;;;;;;;;4976950;28;20117;-67
2022/05/11 05:36:27;;;;;;;10.93;7.43;;;;;;;;;;4972224;28;20018;-66
2022/05/11 05:38:53;;;;;;;15.43;10.95;;;;;;;;;;4955384;28;20369;-68
2022/05/11 05:41:18;;;;;;;9.68;6.88;;;;;;;;;;4964581;28;20046;-69
2022/05/11 05:43:44;;;;;;;7.20;6.50;;;;;;;;;;4975285;28;20034;-69
2022/05/11 05:46:09;;;;;;;7.25;5.45;;;;;;;;;;4985332;28;20366;-68
2022/05/11 05:48:34;;;;;;;10.25;5.65;;;;;;;;;;4985079;28;20030;-67
2022/05/11 05:51:07;;;;;;;8.82;5.90;;;;;;;;;;4981235;28;20026;-69
2022/05/11 05:53:33;;;;;;;7.63;5.55;;;;;;;;;;4980580;28;20022;-70
2022/05/11 05:55:58;;;;;;;10.05;7.18;;;;;;;;;;4968913;28;20457;-68
2022/05/11 05:58:23;;;;;;;12.57;7.97;;;;;;;;;;4974595;28;20092;-69
2022/05/11 06:00:49;;;;;;;12.70;11.48;;;;;;;;;;4976022;28;20473;-72
2022/05/11 06:03:21;;;;;;;11.30;8.55;;;;;;;;;;4976863;28;20346;-69
2022/05/11 06:05:46;;;;;;;13.23;8.23;;;;;;;;;;4966074;28;20024;-70
2022/05/11 06:08:15;;;;;;;8.98;8.07;;;;;;;;;;4974017;28;20034;-69
2022/05/11 06:10:41;;;;;;;9.40;7.10;;;;;;;;;;4975290;28;20462;-69
2022/05/11 06:13:07;;;;;;;9.73;5.85;;;;;;;;;;4966128;28;20027;-68
2022/05/11 06:15:32;;;;;;;5.88;4.90;;;;;;;;;;4964449;28;20027;-68
2022/05/11 06:17:57;;;;;;;6.40;4.85;;;;;;;;;;4982630;28;20975;-67
2022/05/11 06:20:23;;;;;;;8.05;5.60;;;;;;;;;;4973100;28;20030;-68
2022/05/11 06:22:50;;;;;;;6.38;5.03;;;;;;;;;;4922444;28;20046;-68
2022/05/11 06:25:18;;;;;;;6.20;5.38;;;;;;;;;;4926568;28;20028;-66
2022/05/11 06:27:43;;;;;;;8.13;5.38;;;;;;;;;;4925155;28;20462;-67
2022/05/11 06:30:09;;;;;;;5.90;4.90;;;;;;;;;;4925293;28;20039;-68
2022/05/11 06:32:34;;;;;;;5.68;4.95;;;;;;;;;;4927948;29;20031;-77
2022/05/11 06:35:00;;;;;;;8.07;4.93;;;;;;;;;;4929582;28;20023;-68
2022/05/11 06:37:25;;;;;;;10.13;5.40;;;;;;;;;;4934713;29;20038;-69
2022/05/11 06:39:50;;;;;;;6.15;5.07;;;;;;;;;;4938708;29;20031;-67
2022/05/11 06:42:16;;;;;;;7.30;4.72;;;;;;;;;;4932220;28;20028;-68
2022/05/11 06:44:41;;;;;;;9.02;5.80;;;;;;;;;;4936516;28;20334;-67
2022/05/11 06:47:07;;;;;;;7.78;5.68;;;;;;;;;;4938774;29;20324;-66
2022/05/11 06:49:33;;;;;;;8.25;5.53;;;;;;;;;;4940403;29;20073;-68
2022/05/11 06:51:58;;;;;;;6.20;5.03;;;;;;;;;;4937387;28;20350;-71
2022/05/11 06:59:56;;;;;;;8.27;4.82;;;;;;;;;;4938109;29;21374;-68
2022/05/11 07:02:22;;;;;;;7.05;4.72;;;;;;;;;;4938860;29;20031;-69
2022/05/11 07:04:48;;;;;;;5.88;5.20;;;;;;;;;;4940172;29;20043;-69
2022/05/11 07:07:14;;;;;;;6.68;5.20;;;;;;;;;;4937759;28;20497;-66
2022/05/11 07:09:39;;;;;;;7.95;5.85;;;;;;;;;;4938231;29;20091;-68
2022/05/11 07:12:17;;;;;;;6.22;5.28;;;;;;;;;;4937054;28;20695;-68
2022/05/11 07:14:50;;;;;;;7.28;5.45;;;;;;;;;;4939605;29;20552;-67
2022/05/11 07:17:31;;;;;;;9.10;5.70;;;;;;;;;;4938988;28;20058;-68
2022/05/11 07:19:57;;;;;;;7.20;5.32;;;;;;;;;;4937404;29;20062;-67
2022/05/11 07:22:22;;;;;;;5.90;4.93;;;;;;;;;;4939173;29;20031;-67
2022/05/11 07:24:48;;;;;;;9.43;5.57;;;;;;;;;;4938762;28;20046;-66
2022/05/11 07:27:13;;;;;;;7.78;5.53;;;;;;;;;;4930417;28;20019;-68
2022/05/11 07:29:38;;;;;;;6.85;4.80;;;;;;;;;;4939437;29;20031;-67
2022/05/11 07:32:04;;;;;;;11.25;7.95;;;;;;;;;;4937996;29;20076;-68
2022/05/11 07:34:29;;;;;;;7.80;6.15;;;;;;;;;;4940662;28;20031;-71
2022/05/11 07:36:55;;;;;;;6.75;4.63;;;;;;;;;;4927147;28;20551;-68
2022/05/11 07:39:24;;;;;;;5.50;4.95;;;;;;;;;;4927627;28;20019;-67
2022/05/11 07:41:49;;;;;;;9.40;5.38;;;;;;;;;;4931582;28;20157;-68
2022/05/11 07:44:15;;;;;;;6.93;4.30;;;;;;;;;;4930690;29;20120;-69
2022/05/11 07:46:41;;;;;;;4.88;4.47;;;;;;;;;;4934360;28;20042;-74
2022/05/11 07:49:07;;;;;;;5.82;4.20;;;;;;;;;;4935511;28;20055;-69
2022/05/11 07:51:32;;;;;;;4.75;4.30;;;;;;;;;;4936742;29;20031;-69
2022/05/11 07:53:58;;;;;;;6.80;4.75;;;;;;;;;;4937894;28;20026;-69
2022/05/11 08:01:51;;;;;;;7.03;3.88;;;;;;;;;;4937328;29;20050;-69
2022/05/11 08:04:17;;;;;;;5.68;3.95;;;;;;;;;;4927274;28;20027;-74
2022/05/11 08:06:42;;;;;;;5.82;3.90;;;;;;;;;;4927919;28;20374;-71
2022/05/11 08:09:08;;;;;;;7.05;4.13;;;;;;;;;;4928639;28;20028;-70
2022/05/11 08:11:33;;;;;;;6.55;4.28;;;;;;;;;;4917467;28;20027;-69
2022/05/11 08:13:58;;;;;;;6.75;4.00;;;;;;;;;;4926361;28;20039;-68
2022/05/11 08:16:26;;;;;;;7.65;4.13;;;;;;;;;;4928578;28;20073;-70
2022/05/11 08:18:51;;;;;;;5.70;4.28;;;;;;;;;;4928638;28;20034;-70
2022/05/11 08:21:17;;;;;;;5.72;3.92;;;;;;;;;;4926716;28;20102;-71
2022/05/11 08:23:44;;;;;;;6.65;3.80;;;;;;;;;;4926403;29;20027;-70
2022/05/11 08:26:09;;;;;;;7.15;3.63;;;;;;;;;;4926695;28;20027;-68
2022/05/11 08:28:35;;;;;;;5.78;3.90;;;;;;;;;;4927163;28;20042;-70
2022/05/11 08:33:44;;;;;;;4.47;3.58;;;;;;;;;;4926251;28;20454;-71
2022/05/11 08:36:12;;;;;;;5.10;4.00;;;;;;;;;;4927003;28;20032;-71
2022/05/11 08:38:39;;;;;;;4.57;3.05;;;;;;;;;;4925468;28;20150;-70
2022/05/11 08:41:04;;;;;;;4.30;3.40;;;;;;;;;;4926729;28;20094;-70
2022/05/11 08:43:31;;;;;;;19.43;10.90;;;;;;;;;;4929891;28;20039;-73
2022/05/11 08:46:15;;;;;;;12.98;7.00;;;;;;;;;;4928872;28;20277;-72
2022/05/11 08:49:00;;;;;;;19.65;9.07;;;;;;;;;;4926538;28;20030;-69
2022/05/11 08:51:36;;;;;;;5.00;3.10;;;;;;;;;;4925519;28;20027;-67
2022/05/11 08:54:15;;;;;;;4.30;2.70;;;;;;;;;;4929949;28;20036;-70
2022/05/11 08:56:42;;;;;;;3.40;3.10;;;;;;;;;;4937948;28;20444;-71
2022/05/11 08:59:11;;;;;;;5.18;2.53;;;;;;;;;;4937033;28;20586;-70
2022/05/11 09:01:45;;;;;;;5.55;2.78;;;;;;;;;;4937673;28;20108;-70
2022/05/11 09:04:13;;;;;;;4.28;2.63;;;;;;;;;;4926775;28;20601;-72
2022/05/11 09:06:43;;;;;;;3.40;2.60;;;;;;;;;;4926168;28;20023;-69
2022/05/11 09:09:08;;;;;;;2.83;2.35;;;;;;;;;;4940173;28;20332;-69
2022/05/11 09:11:39;;;;;;;3.35;2.47;;;;;;;;;;4936378;29;20049;-70
2022/05/11 09:14:05;;;;;;;3.22;2.15;;;;;;;;;;4933988;29;20444;-73
2022/05/11 09:16:57;;;;;;;5.05;2.80;;;;;;;;;;4925631;28;20040;-73
2022/05/11 09:19:25;;;;;;;4.47;2.40;;;;;;;;;;4935879;28;20058;-69
2022/05/11 09:21:52;;;;;;;5.23;2.60;;;;;;;;;;4924571;28;20075;-70
2022/05/11 09:24:17;;;;;;;5.00;2.38;;;;;;;;;;4930674;28;20088;-72
2022/05/11 09:26:44;;;;;;;4.05;3.13;;;;;;;;;;4927747;28;20031;-74
2022/05/11 09:29:13;;;;;;;5.38;3.08;;;;;;;;;;4930144;28;20035;-72
2022/05/11 09:31:38;;;;;;;4.27;2.60;;;;;;;;;;4938787;28;20109;-73
2022/05/11 09:34:05;;;;;;;2.80;2.38;;;;;;;;;;4927974;29;20019;-73
2022/05/11 09:36:35;;;;;;;4.78;2.88;;;;;;;;;;4930849;28;20443;-73
2022/05/11 09:39:13;;;;;;;4.13;2.25;;;;;;;;;;4927433;29;20089;-68
2022/05/11 09:41:40;;;;;;;5.22;2.38;;;;;;;;;;4925688;28;20043;-70
2022/05/11 09:44:23;;;;;;;5.53;2.28;;;;;;;;;;4934645;28;20043;-72
2022/05/11 09:46:49;;;;;;;3.38;2.67;;;;;;;;;;4937044;28;20027;-70
2022/05/11 09:49:17;;;;;;;4.53;2.40;;;;;;;;;;4931293;28;20084;-75
2022/05/11 09:51:45;;;;;;;5.83;3.13;;;;;;;;;;4935290;29;20027;-69
2022/05/11 09:54:23;;;;;;;4.18;2.33;;;;;;;;;;4936514;29;20458;-72
2022/05/11 09:56:49;;;;;;;4.28;2.50;;;;;;;;;;4937333;28;20120;-71
2022/05/11 09:59:22;;;;;;;4.38;2.47;;;;;;;;;;4938735;28;20114;-71
2022/05/11 10:01:49;;;;;;;2.95;2.22;;;;;;;;;;4936352;29;20450;-72
2022/05/11 10:04:16;;;;;;;2.05;1.80;;;;;;;;;;4936589;28;20035;-72
2022/05/11 10:06:47;;;;;;;4.68;2.00;;;;;;;;;;4939081;28;20031;-71
2022/05/11 10:09:15;;;;;;;3.72;2.20;;;;;;;;;;4938352;28;20042;-72
2022/05/11 10:11:49;;;;;;;2.42;2.00;;;;;;;;;;4937390;29;20089;-70
2022/05/11 10:22:50;;;;;;;3.58;2.15;;;;;;;;;;4937471;28;20046;-73
2022/05/11 10:25:18;;;;;;;2.95;2.28;;;;;;;;;;4937712;29;20363;-71
2022/05/11 10:27:43;;;;;;;2.37;2.03;;;;;;;;;;4937545;28;20027;-72
2022/05/11 10:30:16;;;;;;;3.88;2.33;;;;;;;;;;4938574;29;20088;-74
2022/05/11 10:32:44;;;;;;;3.30;2.30;;;;;;;;;;4936305;29;20735;-70
2022/05/11 10:35:20;;;;;;;5.97;2.30;;;;;;;;;;4935621;29;20031;-72
2022/05/11 10:38:15;;;;;;;2.53;1.92;;;;;;;;;;4924608;28;20454;-75
2022/05/11 10:40:49;;;;;;;2.55;2.10;;;;;;;;;;4985097;28;20412;-72
2022/05/11 10:43:35;;;;;;;4.38;1.70;;;;;;;;;;4938449;29;20042;-73
2022/05/11 10:46:05;;;;;;;8.40;2.13;;;;;;;;;;4937543;28;20122;-73
2022/05/11 10:48:49;;;;;;;3.58;2.17;;;;;;;;;;4938781;28;20445;-71
2022/05/11 10:51:22;;;;;;;5.05;2.40;;;;;;;;;;4938130;28;20092;-72
2022/05/11 10:53:54;;;;;;;3.03;2.03;;;;;;;;;;4936714;29;20560;-71
2022/05/11 10:56:25;;;;;;;3.85;2.00;;;;;;;;;;4936406;28;20040;-74
2022/05/11 10:59:10;;;;;;;3.08;1.92;;;;;;;;;;4938571;28;20119;-73
2022/05/11 11:01:49;;;;;;;5.57;1.73;;;;;;;;;;4938459;28;20035;-71
2022/05/11 11:04:14;;;;;;;;;;;;;;;;;;4937726;28;20032;-73
2022/05/11 11:07:13;;;;;;;12.87;2.83;;;;;;;;;;4926920;28;20328;-75
2022/05/11 11:09:38;;;;;;;1.92;1.80;;;;;;;;;;4926349;28;20043;-73
2022/05/11 11:12:18;;;;;;;3.23;2.10;;;;;;;;;;4932992;28;20035;-73
2022/05/11 11:14:47;;;;;;;2.97;2.00;;;;;;;;;;4932827;29;20270;-73
2022/05/11 11:17:17;;;;;;;2.00;1.80;;;;;;;;;;4940243;29;20110;-73
2022/05/11 11:19:45;;;;;;;2.40;1.70;;;;;;;;;;4938653;28;20466;-73
2022/05/11 11:22:10;;;;;;;2.75;1.92;;;;;;;;;;4937409;29;20365;-72
2022/05/11 11:24:38;;;;;;;2.38;2.00;;;;;;;;;;4940847;29;20039;-73
2022/05/11 11:27:05;;;;;;;1.73;1.60;;;;;;;;;;4940975;28;20026;-75
2022/05/11 11:29:35;;;;;;;2.45;2.00;;;;;;;;;;4938291;28;20035;-75
2022/05/11 11:32:00;;;;;;;3.22;1.70;;;;;;;;;;4939264;28;20339;-74
2022/05/11 11:34:31;;;;;;;4.32;1.85;;;;;;;;;;4941084;28;20043;-74
2022/05/11 11:36:57;;;;;;;3.25;2.00;;;;;;;;;;4940508;28;20038;-74
2022/05/11 11:39:41;;;;;;;4.47;2.53;;;;;;;;;;4941557;29;20031;-73
2022/05/11 11:42:06;;;;;;;4.38;2.17;;;;;;;;;;4939309;29;20043;-74
2022/05/11 11:44:45;;;;;;;2.50;1.73;;;;;;;;;;4940762;29;20027;-72
2022/05/11 11:47:26;;;;;;;5.43;2.03;;;;;;;;;;4939983;28;20038;-73
2022/05/11 11:49:52;;;;;;;2.90;1.77;;;;;;;;;;4941498;29;20505;-73
2022/05/11 11:52:47;;;;;;;3.60;1.80;;;;;;;;;;4939905;28;20540;-73
2022/05/11 11:55:24;;;;;;;2.05;1.85;;;;;;;;;;4952286;28;20035;-73
2022/05/11 11:57:53;;;;;;;2.25;1.90;;;;;;;;;;4939409;29;20039;-73
2022/05/11 12:00:37;;;;;;;2.75;1.95;;;;;;;;;;4940405;28;20414;-73
2022/05/11 12:03:12;;;;;;;2.25;1.85;;;;;;;;;;4938945;28;20043;-72
2022/05/11 12:05:43;;;;;;;5.53;2.63;;;;;;;;;;4940167;28;20031;-73
2022/05/11 12:16:43;;;;;;;4.03;2.10;;;;;;;;;;4940437;29;20096;-76
2022/05/11 12:19:10;;;;;;;6.50;2.50;;;;;;;;;;4938981;29;20031;-73
2022/05/11 12:21:36;;;;;;;5.15;2.05;;;;;;;;;;4941020;29;20066;-76
2022/05/11 12:24:04;;;;;;;2.92;2.15;;;;;;;;;;4936241;29;20033;-74
2022/05/11 12:26:39;;;;;;;3.10;2.17;;;;;;;;;;4938976;29;20394;-74
2022/05/11 12:32:00;;;;;;;4.00;2.30;;;;;;;;;;4939177;29;20045;-74
2022/05/11 12:34:27;;;;;;;2.75;2.22;;;;;;;;;;4939620;28;20034;-74
2022/05/11 12:36:53;;;;;;;3.60;2.33;;;;;;;;;;4940022;29;20032;-74
2022/05/11 12:39:28;;;;;;;3.83;2.38;;;;;;;;;;4939822;28;20031;-76
2022/05/11 12:41:54;;;;;;;3.88;2.50;;;;;;;;;;4939078;29;20185;-74
2022/05/11 12:44:25;;;;;;;4.15;2.42;;;;;;;;;;4938259;29;20027;-73
2022/05/11 12:46:50;;;;;;;2.90;2.45;;;;;;;;;;4937781;28;20451;-75
2022/05/11 12:49:16;;;;;;;5.32;2.63;;;;;;;;;;4940091;28;20079;-75
2022/05/11 12:51:42;;;;;;;3.05;2.50;;;;;;;;;;4938950;28;20039;-75
2022/05/11 12:54:16;;;;;;;3.13;2.30;;;;;;;;;;4939145;29;20030;-73
2022/05/11 12:56:43;;;;;;;3.55;2.30;;;;;;;;;;4937627;28;20357;-74
2022/05/11 12:59:21;;;;;;;4.05;2.53;;;;;;;;;;4938346;28;20039;-75
2022/05/11 13:01:47;;;;;;;4.22;2.70;;;;;;;;;;4937277;29;20438;-73
2022/05/11 13:04:19;;;;;;;4.10;2.35;;;;;;;;;;4939369;28;20077;-75
2022/05/11 13:06:46;;;;;;;2.80;2.60;;;;;;;;;;4936952;29;20035;-75
2022/05/11 13:09:18;;;;;;;3.30;2.78;;;;;;;;;;4938485;29;20673;-74
2022/05/11 13:11:44;;;;;;;6.05;3.50;;;;;;;;;;4939644;29;20081;-73
2022/05/11 13:14:17;;;;;;;3.95;2.58;;;;;;;;;;4938941;28;20035;-72
2022/05/11 13:16:47;;;;;;;3.60;2.72;;;;;;;;;;4939341;28;20081;-73
2022/05/11 13:19:12;;;;;;;3.13;2.83;;;;;;;;;;4932360;29;20117;-76
2022/05/11 13:21:37;;;;;;;3.15;2.85;;;;;;;;;;4928575;28;20032;-74
2022/05/11 13:24:04;;;;;;;6.55;2.83;;;;;;;;;;4932988;29;20039;-74
2022/05/11 13:26:30;;;;;;;2.70;2.50;;;;;;;;;;4933159;28;20118;-73
2022/05/11 13:28:59;;;;;;;4.05;2.42;;;;;;;;;;4926846;29;20118;-73
2022/05/11 13:31:34;;;;;;;2.95;2.67;;;;;;;;;;4927525;29;20031;-73
2022/05/11 13:34:01;;;;;;;3.95;2.38;;;;;;;;;;4934490;28;20749;-74
2022/05/11 13:36:38;;;;;;;4.20;2.67;;;;;;;;;;4926601;28;20715;-73
2022/05/11 13:39:09;;;;;;;4.28;2.70;;;;;;;;;;4926825;28;20023;-73
2022/05/11 13:41:39;;;;;;;3.47;2.47;;;;;;;;;;4926430;29;20110;-73
2022/05/11 13:44:14;;;;;;;4.18;2.80;;;;;;;;;;4929718;29;20062;-77
2022/05/11 13:49:30;;;;;;;3.53;2.80;;;;;;;;;;4936567;29;20413;-74
2022/05/11 13:51:56;;;;;;;2.70;2.50;;;;;;;;;;4938275;28;20032;-72
2022/05/11 13:54:21;;;;;;;35.70;23.42;;;;;;;;;;4937616;28;20326;-73
2022/05/11 13:56:56;;;;;;;7.55;4.45;;;;;;;;;;4927150;28;20023;-74
2022/05/11 13:59:23;;;;;;;3.25;2.95;;;;;;;;;;4928203;28;20431;-75
2022/05/11 14:01:49;;;;;;;2.53;2.33;;;;;;;;;;4927456;29;20055;-72
2022/05/11 14:04:19;;;;;;;4.10;2.75;;;;;;;;;;4927174;28;20354;-72
2022/05/11 14:06:54;;;;;;;3.92;2.70;;;;;;;;;;4937010;29;20034;-74
2022/05/11 14:09:19;;;;;;;5.13;3.17;;;;;;;;;;4936325;28;20027;-72
2022/05/11 14:11:45;;;;;;;3.55;2.85;;;;;;;;;;4935178;28;20372;-74
2022/05/11 14:14:10;;;;;;;4.22;3.50;;;;;;;;;;4936999;28;20476;-74
2022/05/11 14:16:35;;;;;;;4.68;3.03;;;;;;;;;;4937680;28;20546;-73
2022/05/11 14:19:01;;;;;;;3.67;3.15;;;;;;;;;;4937995;29;20031;-73
2022/05/11 14:21:26;;;;;;;8.27;5.13;;;;;;;;;;4938128;28;20035;-74
2022/05/11 14:23:51;;;;;;;9.73;4.80;;;;;;;;;;4938536;28;20031;-74
2022/05/11 14:26:17;;;;;;;14.02;8.68;;;;;;;;;;4923434;29;20031;-73
2022/05/11 14:28:42;;;;;;;5.57;3.65;;;;;;;;;;4937983;28;20034;-73
2022/05/11 14:31:11;;;;;;;5.50;2.97;;;;;;;;;;4938540;29;20027;-74
2022/05/11 14:33:36;;;;;;;2.92;2.20;;;;;;;;;;4936741;29;20036;-74
2022/05/11 14:36:01;;;;;;;6.50;2.55;;;;;;;;;;4938007;28;20038;-74
2022/05/11 14:38:27;;;;;;;2.83;2.40;;;;;;;;;;4935078;29;20034;-72
2022/05/11 14:40:52;;;;;;;5.82;2.65;;;;;;;;;;4937623;28;20115;-72
2022/05/11 14:43:17;;;;;;;4.68;4.22;;;;;;;;;;4934718;28;20035;-72
2022/05/11 14:45:44;;;;;;;6.05;3.30;;;;;;;;;;4936512;28;20024;-72
2022/05/11 14:48:18;;;;;;;57.70;38.47;;;;;;;;;;4938006;28;20469;-74
2022/05/11 14:50:44;;;;;;;45.25;29.50;;;;;;;;;;4937477;28;20089;-73
2022/05/11 14:53:09;;;;;;;220.75;144.30;;;;;;;;;;4941629;29;20031;-73
2022/05/11 14:55:34;;;;;;;100.90;61.38;;;;;;;;;;4939170;29;20035;-71
2022/05/11 15:03:29;;;;;;;39.90;23.65;;;;;;;;;;4936366;29;20101;-71
2022/05/11 15:05:56;;;;;;;47.97;32.55;;;;;;;;;;4945471;28;20032;-72
2022/05/11 15:08:22;;;;;;;19.02;12.07;;;;;;;;;;4927898;28;20027;-73
2022/05/11 15:10:48;;;;;;;4.05;3.10;;;;;;;;;;4934465;28;20023;-72
2022/05/11 15:13:31;;;;;;;85.63;61.40;;;;;;;;;;4935840;28;20054;-71
2022/05/11 15:15:57;;;;;;;12.40;8.90;;;;;;;;;;4925345;29;20034;-72
2022/05/11 15:18:24;;;;;;;5.43;2.83;;;;;;;;;;4936239;28;20023;-73
2022/05/11 15:20:50;;;;;;;2.72;2.53;;;;;;;;;;4930475;29;20057;-72
2022/05/11 15:23:16;;;;;;;6.53;2.95;;;;;;;;;;4926840;29;20100;-74
2022/05/11 15:25:41;;;;;;;3.70;2.83;;;;;;;;;;4926133;28;20035;-71
2022/05/11 15:28:07;;;;;;;4.32;2.97;;;;;;;;;;4926173;28;20852;-71
2022/05/11 15:30:33;;;;;;;6.63;4.72;;;;;;;;;;4926437;29;20031;-72
2022/05/11 15:32:59;;;;;;;7.60;4.72;;;;;;;;;;4932569;28;20071;-71